createdAt,value
2023-05-16T00:02:45.972Z,13.62
2023-05-16T00:07:48.934Z,13.55
2023-05-16T00:12:52.613Z,13.51
2023-05-16T00:17:58.576Z,13.40
2023-05-16T00:23:01.836Z,13.10
2023-05-16T00:28:04.844Z,13.09
2023-05-16T00:33:09.178Z,13.11
2023-05-16T00:38:12.682Z,13.01
2023-05-16T00:43:15.585Z,13.01
2023-05-16T00:48:20.485Z,12.99
2023-05-16T00:53:24.210Z,12.85
2023-05-16T00:58:27.571Z,12.86
2023-05-16T01:03:32.138Z,12.80
2023-05-16T01:08:35.836Z,12.76
2023-05-16T01:13:49.344Z,12.34
2023-05-16T01:19:03.905Z,12.60
2023-05-16T01:24:16.096Z,12.55
2023-05-16T01:29:20.675Z,12.63
2023-05-16T01:34:24.292Z,12.68
2023-05-16T01:39:34.699Z,12.55
2023-05-16T01:44:44.482Z,12.35
2023-05-16T01:49:58.275Z,12.30
2023-05-16T01:55:01.789Z,12.31
2023-05-16T02:00:07.610Z,12.36
2023-05-16T02:05:30.818Z,12.34
2023-05-16T02:10:34.003Z,12.23
2023-05-16T02:15:38.219Z,12.14
2023-05-16T02:20:41.257Z,12.14
2023-05-16T02:25:44.197Z,12.19
2023-05-16T02:30:57.584Z,12.15
2023-05-16T02:36:00.800Z,12.18
2023-05-16T02:41:03.719Z,12.31
2023-05-16T02:46:21.575Z,12.36
2023-05-16T02:51:26.068Z,12.46
2023-05-16T02:56:29.080Z,12.43
2023-05-16T03:01:33.467Z,12.48
2023-05-16T03:06:36.397Z,12.51
2023-05-16T03:11:39.359Z,12.44
2023-05-16T03:16:44.062Z,12.48
2023-05-16T03:21:47.081Z,12.28
2023-05-16T03:26:50.129Z,12.30
2023-05-16T03:31:57.639Z,12.39
2023-05-16T03:37:00.776Z,12.37
2023-05-16T03:42:03.626Z,12.39
2023-05-16T03:47:08.052Z,12.52
2023-05-16T03:52:11.257Z,12.56
2023-05-16T03:57:14.133Z,12.55
2023-05-16T04:02:19.001Z,12.58
2023-05-16T04:07:23.855Z,12.63
2023-05-16T04:12:27.056Z,12.72
2023-05-16T04:17:31.464Z,12.68
2023-05-16T04:22:34.581Z,12.83
2023-05-16T04:27:37.612Z,12.84
2023-05-16T04:32:41.987Z,12.88
2023-05-16T04:37:44.943Z,12.96
2023-05-16T04:42:47.835Z,12.94
2023-05-16T04:47:52.375Z,12.95
2023-05-16T04:52:56.572Z,12.56
2023-05-16T04:57:59.550Z,12.59
2023-05-16T05:03:04.532Z,12.21
2023-05-16T05:08:07.684Z,12.14
2023-05-16T05:13:10.572Z,12.11
2023-05-16T05:18:16.435Z,12.18
2023-05-16T05:23:20.794Z,12.35
2023-05-16T05:28:23.638Z,11.99
2023-05-16T05:33:29.538Z,12.30
2023-05-16T05:38:32.737Z,12.59
2023-05-16T05:43:35.645Z,12.50
2023-05-16T05:48:39.988Z,12.09
2023-05-16T05:53:42.952Z,11.95
2023-05-16T05:58:46.137Z,12.21
2023-05-16T06:03:50.525Z,11.93
2023-05-16T06:08:53.420Z,11.42
2023-05-16T06:13:57.557Z,11.86
2023-05-16T06:19:01.878Z,11.40
2023-05-16T06:24:05.056Z,11.65
2023-05-16T06:29:08.031Z,11.97
2023-05-16T06:34:12.492Z,11.01
2023-05-16T06:39:15.361Z,11.10
2023-05-16T06:44:18.438Z,11.04
2023-05-16T06:49:22.736Z,10.94
2023-05-16T06:54:25.708Z,11.34
2023-05-16T06:59:28.640Z,11.09
2023-05-16T07:04:32.982Z,10.87
2023-05-16T07:09:35.954Z,11.34
2023-05-16T07:14:38.918Z,11.40
2023-05-16T07:19:43.251Z,11.51
2023-05-16T07:24:46.186Z,11.39
2023-05-16T07:29:49.194Z,11.32
2023-05-16T07:34:53.465Z,11.38
2023-05-16T07:39:56.408Z,11.40
2023-05-16T07:44:59.371Z,11.27
2023-05-16T07:50:03.946Z,11.06
2023-05-16T07:55:08.146Z,11.11
2023-05-16T08:00:12.782Z,10.93
2023-05-16T08:05:17.254Z,11.16
2023-05-16T08:10:20.223Z,11.17
2023-05-16T08:15:23.162Z,10.65
2023-05-16T08:20:27.843Z,10.83
2023-05-16T08:25:31.381Z,10.62
2023-05-16T08:30:34.363Z,10.93
2023-05-16T08:35:38.726Z,11.01
2023-05-16T08:40:45.376Z,11.32
2023-05-16T08:45:48.430Z,10.88
2023-05-16T08:50:53.359Z,10.83
2023-05-16T08:55:57.189Z,10.87
2023-05-16T09:01:02.786Z,11.02
2023-05-16T09:06:08.402Z,11.05
2023-05-16T09:11:11.663Z,11.25
2023-05-16T09:16:16.473Z,11.21
2023-05-16T09:21:21.000Z,11.24
2023-05-16T09:26:24.205Z,11.54
2023-05-16T09:31:31.904Z,11.24
2023-05-16T09:36:36.845Z,11.21
2023-05-16T09:41:40.126Z,10.58
2023-05-16T09:46:43.409Z,11.39
2023-05-16T09:51:48.145Z,11.63
2023-05-16T09:56:51.778Z,11.57
2023-05-16T10:01:55.528Z,11.79
2023-05-16T10:07:03.518Z,12.07
2023-05-16T10:12:09.817Z,11.37
2023-05-16T10:17:15.839Z,11.10
2023-05-16T10:22:22.028Z,11.24
2023-05-16T10:27:26.090Z,11.59
2023-05-16T10:32:29.714Z,11.78
2023-05-16T10:37:35.671Z,11.74
2023-05-16T10:42:38.658Z,11.76
2023-05-16T10:47:41.644Z,11.78
2023-05-16T10:52:45.970Z,11.02
2023-05-16T10:57:48.982Z,10.62
2023-05-16T11:02:52.055Z,10.36
2023-05-16T11:08:06.670Z,10.82
2023-05-16T11:13:09.748Z,11.36
2023-05-16T11:18:16.306Z,11.72
2023-05-16T11:23:22.963Z,11.88
2023-05-16T11:28:27.767Z,11.72
2023-05-16T11:33:35.557Z,12.65
2023-05-16T11:38:43.420Z,13.02
2023-05-16T11:43:46.830Z,12.00
2023-05-16T11:48:49.976Z,12.29
2023-05-16T11:53:54.702Z,12.17
2023-05-16T11:58:59.419Z,11.89
2023-05-16T12:04:02.974Z,12.57
2023-05-16T12:09:10.668Z,12.79
2023-05-16T12:14:14.915Z,12.72
2023-05-16T12:19:18.138Z,12.60
2023-05-16T12:24:22.752Z,12.54
2023-05-16T12:30:20.377Z,12.92
2023-05-16T12:36:18.707Z,13.24
2023-05-16T12:41:42.361Z,13.46
2023-05-16T12:46:46.726Z,12.21
2023-05-16T12:52:18.862Z,12.20
2023-05-16T12:57:59.068Z,12.30
2023-05-16T13:03:03.619Z,12.73
2023-05-16T13:08:11.252Z,13.35
2023-05-16T13:13:25.101Z,13.36
2023-05-16T13:18:39.699Z,12.47
2023-05-16T13:23:42.682Z,12.96
2023-05-16T13:28:45.652Z,12.91
2023-05-16T13:33:49.951Z,12.75
2023-05-16T13:38:53.006Z,12.58
2023-05-16T13:43:55.976Z,12.53
2023-05-16T13:49:01.829Z,12.85
2023-05-16T13:54:04.994Z,12.73
2023-05-16T13:59:09.616Z,12.44
2023-05-16T14:04:15.757Z,12.97
2023-05-16T14:09:18.943Z,13.34
2023-05-16T14:14:21.880Z,13.44
2023-05-16T14:19:26.318Z,12.55
2023-05-16T14:24:29.408Z,12.46
2023-05-16T14:29:32.403Z,12.95
2023-05-16T14:34:36.703Z,12.32
2023-05-16T14:39:39.733Z,11.99
2023-05-16T14:44:42.686Z,11.97
2023-05-16T14:49:47.173Z,12.01
2023-05-16T14:54:50.145Z,11.86
2023-05-16T14:59:53.113Z,11.81
2023-05-16T15:04:57.546Z,12.18
2023-05-16T15:10:00.528Z,12.45
2023-05-16T15:15:04.162Z,12.28
2023-05-16T15:20:10.624Z,12.33
2023-05-16T15:25:13.635Z,12.29
2023-05-16T15:30:16.726Z,12.74
2023-05-16T15:35:21.052Z,12.33
2023-05-16T15:40:27.220Z,12.73
2023-05-16T15:45:30.955Z,12.66
2023-05-16T15:50:35.412Z,12.24
2023-05-16T15:55:38.529Z,13.31
2023-05-16T16:00:42.748Z,12.45
2023-05-16T16:05:48.082Z,12.68
2023-05-16T16:10:51.574Z,13.18
2023-05-16T16:15:54.817Z,13.00
2023-05-16T16:20:59.202Z,13.09
2023-05-16T16:26:02.114Z,13.58
2023-05-16T16:31:05.323Z,13.70
2023-05-16T16:36:10.786Z,13.93
2023-05-16T16:41:14.411Z,13.43
2023-05-16T16:46:17.397Z,13.01
2023-05-16T16:51:22.292Z,13.51
2023-05-16T16:56:26.487Z,13.36
2023-05-16T17:01:31.930Z,13.42
2023-05-16T17:06:36.814Z,13.84
2023-05-16T17:11:40.585Z,13.95
2023-05-16T17:16:43.540Z,14.05
2023-05-16T17:21:47.942Z,14.10
2023-05-16T17:26:51.113Z,14.01
2023-05-16T17:31:54.182Z,14.01
2023-05-16T17:36:58.554Z,14.08
2023-05-16T17:42:01.872Z,14.18
2023-05-16T17:47:05.076Z,14.33
2023-05-16T17:52:09.496Z,13.91
2023-05-16T17:57:13.015Z,13.89
2023-05-16T18:02:16.404Z,14.01
2023-05-16T18:07:20.679Z,13.87
2023-05-16T18:12:23.734Z,13.86
2023-05-16T18:17:27.323Z,13.72
2023-05-16T18:22:31.709Z,13.71
2023-05-16T18:27:35.550Z,13.64
2023-05-16T18:32:38.638Z,13.48
2023-05-16T18:37:44.347Z,13.40
2023-05-16T18:42:47.612Z,13.31
2023-05-16T18:47:51.106Z,13.11
2023-05-16T18:52:57.555Z,12.94
2023-05-16T18:58:00.670Z,13.03
2023-05-16T19:03:03.653Z,12.90
2023-05-16T19:08:08.324Z,12.68
2023-05-16T19:13:11.290Z,12.50
2023-05-16T19:18:14.380Z,12.27
2023-05-16T19:23:18.761Z,12.15
2023-05-16T19:28:21.726Z,11.87
2023-05-16T19:33:24.815Z,11.84
2023-05-16T19:38:29.155Z,11.77
2023-05-16T19:43:32.227Z,11.70
2023-05-16T19:48:35.490Z,11.47
2023-05-16T19:53:40.060Z,11.21
2023-05-16T19:58:43.920Z,11.07
2023-05-16T20:03:46.933Z,10.90
2023-05-16T20:08:51.266Z,10.88
2023-05-16T20:13:55.731Z,10.69
2023-05-16T20:18:59.154Z,10.45
2023-05-16T20:24:03.518Z,10.13
2023-05-16T20:29:06.450Z,9.93
2023-05-16T20:34:09.419Z,10.05
2023-05-16T20:39:13.707Z,9.98
2023-05-16T20:44:16.596Z,10.07
2023-05-16T20:49:19.513Z,9.88
2023-05-16T20:54:23.872Z,9.76
2023-05-16T20:59:26.901Z,9.88
2023-05-16T21:04:29.876Z,9.98
2023-05-16T21:09:36.764Z,9.94
2023-05-16T21:14:39.980Z,10.08
2023-05-16T21:19:42.950Z,9.97
2023-05-16T21:24:47.279Z,9.85
2023-05-16T21:29:50.201Z,9.89
2023-05-16T21:34:53.172Z,9.80
2023-05-16T21:39:57.478Z,10.02
2023-05-16T21:45:00.439Z,9.88
2023-05-16T21:50:03.457Z,9.86
2023-05-16T21:55:08.488Z,9.78
2023-05-16T22:00:12.638Z,9.53
2023-05-16T22:05:19.046Z,9.50
2023-05-16T22:10:23.367Z,9.50
2023-05-16T22:15:26.886Z,9.45
2023-05-16T22:20:30.040Z,9.37
2023-05-16T22:25:34.435Z,9.18
2023-05-16T22:30:37.372Z,9.16
2023-05-16T22:35:40.289Z,9.12
2023-05-16T22:40:44.618Z,9.19
2023-05-16T22:45:47.547Z,9.05
2023-05-16T22:50:50.598Z,9.01
2023-05-16T22:55:54.940Z,8.88
2023-05-16T23:00:58.303Z,8.81
2023-05-16T23:06:01.204Z,8.70
2023-05-16T23:11:05.553Z,8.51
2023-05-16T23:16:08.661Z,8.58
2023-05-16T23:21:11.583Z,8.56
2023-05-16T23:26:15.931Z,8.49
2023-05-16T23:31:18.843Z,8.30
2023-05-16T23:36:21.821Z,7.92
2023-05-16T23:41:26.110Z,7.95
2023-05-16T23:46:29.248Z,7.61
2023-05-16T23:51:44.911Z,7.54
2023-05-16T23:56:56.412Z,7.60
